createdAt,value
2018-08-11T00:01:13.935Z,76.30
2018-08-11T00:03:42.355Z,76.30
2018-08-11T00:06:11.113Z,77.50
2018-08-11T00:08:39.608Z,77.90
2018-08-11T00:11:08.074Z,77.80
2018-08-11T00:13:36.478Z,78.70
2018-08-11T00:16:05.157Z,77.40
2018-08-11T00:18:33.564Z,78.70
2018-08-11T00:21:01.974Z,78.80
2018-08-11T00:23:30.450Z,78.10
2018-08-11T00:25:59.064Z,78.40
2018-08-11T00:28:27.768Z,77.40
2018-08-11T00:30:56.299Z,78.50
2018-08-11T00:33:24.743Z,79.20
2018-08-11T00:35:53.540Z,79.10
2018-08-11T00:38:22.252Z,79.00
2018-08-11T00:40:50.815Z,79.20
2018-08-11T00:43:19.308Z,80.80
2018-08-11T00:45:47.748Z,79.60
2018-08-11T00:48:16.373Z,79.80
2018-08-11T00:50:45.072Z,80.40
2018-08-11T00:53:13.531Z,80.20
2018-08-11T00:55:41.994Z,80.70
2018-08-11T00:58:10.483Z,80.40
2018-08-11T01:00:39.138Z,80.10
2018-08-11T01:03:07.698Z,81.30
2018-08-11T01:05:36.113Z,80.50
2018-08-11T01:08:04.882Z,81.50
2018-08-11T01:10:33.311Z,81.20
2018-08-11T01:13:01.505Z,81.10
2018-08-11T01:15:30.058Z,81.00
2018-08-11T01:17:58.436Z,81.90
2018-08-11T01:20:26.909Z,82.30
2018-08-11T01:22:55.391Z,81.80
2018-08-11T01:25:23.836Z,81.30
2018-08-11T01:27:52.579Z,81.20
2018-08-11T01:30:21.815Z,81.50
2018-08-11T01:32:50.318Z,81.60
2018-08-11T01:35:18.936Z,81.70
2018-08-11T01:37:47.630Z,81.20
2018-08-11T01:40:16.771Z,81.20
2018-08-11T01:42:46.372Z,81.50
2018-08-11T01:45:15.500Z,81.10
2018-08-11T01:47:44.231Z,82.50
2018-08-11T01:50:14.260Z,82.10
2018-08-11T01:52:43.913Z,82.20
2018-08-11T01:55:14.280Z,82.10
2018-08-11T01:57:42.831Z,81.60
2018-08-11T02:00:13.228Z,81.70
2018-08-11T02:02:41.807Z,82.50
2018-08-11T02:05:10.959Z,81.80
2018-08-11T02:07:40.669Z,81.20
2018-08-11T02:10:15.166Z,82.50
2018-08-11T02:12:43.951Z,83.10
2018-08-11T02:15:13.283Z,83.10
2018-08-11T02:17:42.016Z,82.80
2018-08-11T02:20:13.831Z,83.60
2018-08-11T02:22:43.891Z,84.00
2018-08-11T02:25:12.545Z,82.50
2018-08-11T02:27:40.894Z,82.80
2018-08-11T02:30:12.503Z,81.90
2018-08-11T02:32:41.113Z,82.50
2018-08-11T02:35:10.891Z,82.70
2018-08-11T02:37:39.712Z,82.10
2018-08-11T02:40:10.954Z,82.20
2018-08-11T02:42:39.382Z,82.30
2018-08-11T02:45:10.403Z,82.70
2018-08-11T02:47:38.783Z,82.20
2018-08-11T02:50:09.335Z,82.10
2018-08-11T02:52:38.231Z,82.10
2018-08-11T02:55:06.891Z,82.20
2018-08-11T02:57:35.513Z,81.70
2018-08-11T03:00:05.158Z,81.40
2018-08-11T03:02:33.782Z,82.00
2018-08-11T03:05:02.352Z,82.00
2018-08-11T03:07:30.703Z,82.20
2018-08-11T03:09:59.033Z,82.20
2018-08-11T03:12:27.727Z,83.10
2018-08-11T03:14:56.122Z,81.70
2018-08-11T03:17:24.787Z,82.60
2018-08-11T03:19:53.255Z,82.10
2018-08-11T03:22:21.663Z,81.50
2018-08-11T03:24:50.063Z,82.30
2018-08-11T03:27:18.571Z,82.00
2018-08-11T03:29:46.996Z,81.50
2018-08-11T03:32:15.400Z,82.40
2018-08-11T03:34:43.720Z,82.20
2018-08-11T03:37:12.067Z,81.50
2018-08-11T03:39:40.499Z,81.80
2018-08-11T03:42:08.569Z,81.50
2018-08-11T03:44:36.658Z,80.70
2018-08-11T03:47:05.133Z,81.00
2018-08-11T03:49:33.748Z,81.00
2018-08-11T03:52:02.141Z,81.20
2018-08-11T03:54:30.661Z,80.60
2018-08-11T03:56:58.718Z,81.30
2018-08-11T03:59:27.365Z,80.60
2018-08-11T04:01:55.744Z,81.70
2018-08-11T04:04:24.110Z,80.70
2018-08-11T04:06:52.882Z,80.30
2018-08-11T04:09:21.463Z,80.00
2018-08-11T04:11:49.880Z,81.00
2018-08-11T04:14:18.527Z,80.20
2018-08-11T04:16:47.107Z,80.00
2018-08-11T04:19:15.583Z,79.40
2018-08-11T04:21:44.175Z,79.10
2018-08-11T04:24:12.562Z,79.30
2018-08-11T04:26:40.651Z,79.70
2018-08-11T04:29:09.590Z,79.20
2018-08-11T04:31:38.179Z,78.20
2018-08-11T04:34:07.035Z,78.80
2018-08-11T04:36:35.493Z,79.20
2018-08-11T04:39:06.643Z,79.00
2018-08-11T04:41:35.107Z,79.10
2018-08-11T04:44:03.624Z,79.60
2018-08-11T04:46:32.004Z,78.90
2018-08-11T04:49:00.523Z,78.80
2018-08-11T04:51:28.896Z,78.40
2018-08-11T04:53:57.421Z,78.40
2018-08-11T04:56:25.796Z,78.90
2018-08-11T04:58:54.199Z,79.10
2018-08-11T05:01:22.807Z,78.90
2018-08-11T05:03:51.494Z,78.20
2018-08-11T05:06:19.826Z,78.10
2018-08-11T05:08:48.222Z,77.80
2018-08-11T05:11:16.668Z,78.10
2018-08-11T05:13:45.034Z,78.50
2018-08-11T05:16:13.399Z,78.70
2018-08-11T05:18:41.827Z,78.30
2018-08-11T05:21:10.519Z,78.50
2018-08-11T05:23:39.013Z,78.20
2018-08-11T05:26:07.432Z,79.00
2018-08-11T05:28:35.920Z,78.60
2018-08-11T05:31:04.449Z,78.70
2018-08-11T05:33:33.060Z,79.00
2018-08-11T05:36:01.428Z,78.00
2018-08-11T05:38:29.992Z,78.10
2018-08-11T05:40:58.587Z,79.00
2018-08-11T05:43:30.913Z,78.00
2018-08-11T05:45:59.423Z,78.60
2018-08-11T05:48:28.037Z,78.60
2018-08-11T05:50:56.494Z,79.00
2018-08-11T05:53:24.854Z,78.60
2018-08-11T05:55:53.560Z,78.00
2018-08-11T05:58:22.114Z,77.30
2018-08-11T06:00:50.493Z,77.60
2018-08-11T06:03:19.183Z,76.80
2018-08-11T06:05:47.935Z,75.80
2018-08-11T06:08:16.343Z,75.90
2018-08-11T06:10:44.915Z,76.70
2018-08-11T06:13:13.263Z,75.30
2018-08-11T06:15:41.734Z,75.60
2018-08-11T06:18:10.140Z,75.90
2018-08-11T06:20:38.545Z,75.70
2018-08-11T06:23:07.143Z,75.50
2018-08-11T06:25:35.615Z,76.00
2018-08-11T06:28:04.299Z,76.30
2018-08-11T06:30:32.682Z,76.00
2018-08-11T06:33:01.115Z,75.00
2018-08-11T06:35:29.560Z,76.00
2018-08-11T06:37:57.905Z,76.30
2018-08-11T06:40:26.268Z,75.30
2018-08-11T06:42:54.817Z,75.60
2018-08-11T06:45:23.207Z,75.10
2018-08-11T06:47:51.534Z,75.00
2018-08-11T06:50:20.271Z,74.40
2018-08-11T06:52:48.878Z,74.50
2018-08-11T06:55:17.242Z,73.50
2018-08-11T06:57:45.941Z,73.60
2018-08-11T07:00:14.251Z,74.10
2018-08-11T07:02:42.603Z,73.70
2018-08-11T07:05:11.173Z,73.00
2018-08-11T07:07:39.560Z,73.50
2018-08-11T07:10:08.051Z,72.50
2018-08-11T07:12:36.804Z,73.50
2018-08-11T07:15:05.648Z,71.90
2018-08-11T07:17:34.182Z,71.00
2018-08-11T07:20:02.715Z,71.20
2018-08-11T07:22:31.260Z,70.60
2018-08-11T07:24:59.867Z,70.90
2018-08-11T07:27:28.287Z,69.80
2018-08-11T07:29:56.911Z,68.60
2018-08-11T07:32:25.289Z,67.00
2018-08-11T07:34:53.750Z,67.30
2018-08-11T07:37:22.228Z,66.70
2018-08-11T07:39:50.865Z,66.60
2018-08-11T07:42:19.219Z,67.20
2018-08-11T07:44:47.668Z,67.90
2018-08-11T07:47:16.157Z,67.10
2018-08-11T07:49:44.837Z,65.10
2018-08-11T07:52:13.265Z,66.00
2018-08-11T07:54:41.666Z,64.10
2018-08-11T07:57:10.067Z,60.60
2018-08-11T07:59:38.422Z,63.30
2018-08-11T08:02:06.981Z,63.80
2018-08-11T08:04:35.626Z,60.00
2018-08-11T08:07:04.449Z,59.00
2018-08-11T08:09:33.116Z,53.30
2018-08-11T08:12:01.770Z,52.10
2018-08-11T08:14:30.441Z,52.10
2018-08-11T08:16:59.067Z,52.90
2018-08-11T08:19:27.882Z,49.60
2018-08-11T08:21:56.282Z,46.70
2018-08-11T08:24:24.752Z,48.80
2018-08-11T08:26:53.198Z,41.80
2018-08-11T08:29:21.548Z,41.10
2018-08-11T08:31:49.986Z,40.00
2018-08-11T08:34:18.489Z,40.50
2018-08-11T08:36:46.929Z,37.20
2018-08-11T08:39:15.389Z,37.10
2018-08-11T08:41:43.771Z,35.70
2018-08-11T08:44:12.256Z,35.30
2018-08-11T08:46:40.754Z,33.80
2018-08-11T08:49:09.208Z,36.40
2018-08-11T08:51:37.849Z,33.20
2018-08-11T08:54:06.272Z,34.00
2018-08-11T08:56:34.704Z,34.50
2018-08-11T08:59:03.562Z,35.00
2018-08-11T09:01:31.982Z,34.00
2018-08-11T09:04:00.622Z,33.60
2018-08-11T09:06:29.273Z,32.80
2018-08-11T09:08:57.664Z,32.50
2018-08-11T09:11:26.381Z,32.10
2018-08-11T09:13:55.059Z,31.00
2018-08-11T09:16:23.685Z,30.60
2018-08-11T09:18:52.427Z,32.40
2018-08-11T09:21:20.774Z,31.50
2018-08-11T09:23:49.109Z,31.50
2018-08-11T09:26:17.578Z,31.40
2018-08-11T09:28:45.947Z,30.50
2018-08-11T09:31:14.435Z,31.50
2018-08-11T09:33:42.995Z,31.80
2018-08-11T09:36:11.570Z,32.40
2018-08-11T09:38:40.260Z,33.30
2018-08-11T09:41:08.890Z,31.60
2018-08-11T09:43:37.282Z,33.10
2018-08-11T09:46:06.019Z,30.70
2018-08-11T09:48:34.635Z,29.80
2018-08-11T09:51:03.049Z,29.80
2018-08-11T09:53:31.362Z,29.80
2018-08-11T09:55:59.688Z,29.50
2018-08-11T09:58:28.325Z,30.90
2018-08-11T10:01:01.405Z,31.30
2018-08-11T10:03:29.882Z,31.80
2018-08-11T10:05:58.268Z,32.30
2018-08-11T10:08:26.714Z,34.40
2018-08-11T10:10:55.086Z,32.20
2018-08-11T10:13:23.429Z,33.60
2018-08-11T10:15:51.822Z,30.70
2018-08-11T10:18:20.205Z,30.20
2018-08-11T10:20:48.931Z,29.00
2018-08-11T10:23:17.477Z,28.90
2018-08-11T10:25:46.291Z,28.50
2018-08-11T10:28:14.685Z,28.40
2018-08-11T10:30:43.368Z,29.00
2018-08-11T10:33:11.725Z,29.20
2018-08-11T10:35:39.861Z,30.90
2018-08-11T10:38:08.333Z,29.80
2018-08-11T10:40:36.877Z,30.00
2018-08-11T10:43:05.407Z,31.10
2018-08-11T10:45:33.892Z,28.60
2018-08-11T10:48:02.552Z,29.20
2018-08-11T10:50:30.986Z,28.50
2018-08-11T10:52:59.373Z,29.00
2018-08-11T10:55:27.767Z,28.60
2018-08-11T10:57:56.423Z,27.30
2018-08-11T11:00:24.981Z,30.30
2018-08-11T11:02:53.352Z,30.80
2018-08-11T11:05:21.770Z,31.50
2018-08-11T11:07:50.210Z,29.80
2018-08-11T11:10:18.868Z,30.40
2018-08-11T11:12:48.724Z,29.90
2018-08-11T11:15:17.591Z,29.30
2018-08-11T11:17:46.212Z,29.40
2018-08-11T11:20:14.780Z,28.80
2018-08-11T11:22:45.929Z,29.90
2018-08-11T11:25:16.115Z,29.20
2018-08-11T11:27:44.608Z,30.50
2018-08-11T11:30:14.959Z,30.20
2018-08-11T11:32:43.779Z,29.20
2018-08-11T11:35:12.357Z,29.20
2018-08-11T11:37:41.116Z,29.50
2018-08-11T11:40:11.104Z,29.30
2018-08-11T11:42:39.793Z,29.90
2018-08-11T11:45:08.486Z,29.80
2018-08-11T11:47:37.327Z,30.00
2018-08-11T11:50:07.547Z,29.70
2018-08-11T11:52:37.231Z,28.80
2018-08-11T11:55:05.904Z,30.60
2018-08-11T11:57:34.468Z,28.40
2018-08-11T12:00:04.189Z,30.90
2018-08-11T12:02:33.099Z,28.40
2018-08-11T12:05:05.084Z,28.00
2018-08-11T12:07:33.761Z,30.00
2018-08-11T12:10:03.459Z,29.00
2018-08-11T12:12:32.212Z,28.80
2018-08-11T12:15:01.657Z,28.40
2018-08-11T12:17:32.738Z,28.30
2018-08-11T12:20:02.248Z,28.00
2018-08-11T12:22:34.246Z,28.10
2018-08-11T12:25:05.338Z,29.50
2018-08-11T12:27:34.205Z,29.20
2018-08-11T12:30:02.919Z,29.80
2018-08-11T12:32:31.811Z,30.00
2018-08-11T12:35:00.581Z,29.40
2018-08-11T12:37:29.776Z,30.60
2018-08-11T12:42:33.714Z,28.20
2018-08-11T12:45:02.306Z,29.80
2018-08-11T12:47:31.120Z,28.70
2018-08-11T12:50:01.034Z,29.30
2018-08-11T12:52:29.942Z,28.30
2018-08-11T12:54:59.991Z,29.40
2018-08-11T12:57:28.679Z,29.80
2018-08-11T12:59:57.956Z,28.70
2018-08-11T13:02:27.203Z,29.50
2018-08-11T13:04:58.267Z,31.40
2018-08-11T13:07:28.399Z,29.40
2018-08-11T13:09:57.705Z,30.80
2018-08-11T13:12:28.316Z,30.40
2018-08-11T13:14:58.517Z,29.80
2018-08-11T13:17:27.924Z,29.80
2018-08-11T13:19:58.882Z,30.20
2018-08-11T13:22:27.639Z,30.70
2018-08-11T13:24:57.357Z,29.60
2018-08-11T13:27:26.447Z,29.50
2018-08-11T13:29:55.690Z,29.70
2018-08-11T13:32:24.998Z,29.90
2018-08-11T13:34:54.503Z,29.20
2018-08-11T13:37:26.016Z,29.60
2018-08-11T13:39:57.735Z,30.00
2018-08-11T13:42:26.993Z,29.50
2018-08-11T13:44:56.839Z,28.40
2018-08-11T13:47:25.378Z,30.00
2018-08-11T13:49:54.792Z,29.70
2018-08-11T13:52:24.016Z,29.90
2018-08-11T13:54:52.744Z,29.80
2018-08-11T13:57:21.643Z,29.80
2018-08-11T13:59:50.807Z,30.00
2018-08-11T14:02:20.098Z,29.80
2018-08-11T14:04:50.217Z,29.80
2018-08-11T14:07:20.016Z,30.80
2018-08-11T14:09:49.120Z,30.50
2018-08-11T14:12:17.934Z,29.60
2018-08-11T14:14:46.788Z,28.60
2018-08-11T14:17:16.516Z,30.00
2018-08-11T14:19:45.001Z,29.50
2018-08-11T14:22:13.904Z,29.10
2018-08-11T14:24:43.716Z,28.50
2018-08-11T14:29:50.236Z,28.00
2018-08-11T14:32:20.647Z,29.20
2018-08-11T14:34:52.004Z,30.00
2018-08-11T14:37:24.585Z,29.40
2018-08-11T14:39:53.602Z,29.00
2018-08-11T14:42:22.400Z,28.10
2018-08-11T14:44:51.333Z,29.20
2018-08-11T14:47:21.031Z,28.80
2018-08-11T14:49:49.803Z,28.60
2018-08-11T14:52:18.348Z,28.90
2018-08-11T14:54:47.033Z,27.90
2018-08-11T14:57:15.746Z,28.50
2018-08-11T14:59:44.824Z,27.40
2018-08-11T15:02:13.806Z,28.00
2018-08-11T15:04:46.780Z,27.00
2018-08-11T15:07:16.132Z,28.10
2018-08-11T15:09:45.337Z,27.70
2018-08-11T15:12:14.620Z,28.40
2018-08-11T15:14:43.465Z,28.50
2018-08-11T15:17:12.202Z,29.00
2018-08-11T15:19:42.583Z,31.50
2018-08-11T15:22:12.212Z,30.30
2018-08-11T15:24:41.756Z,30.70
2018-08-11T15:27:10.743Z,30.00
2018-08-11T15:29:39.555Z,28.50
2018-08-11T15:32:08.289Z,30.20
2018-08-11T15:34:36.872Z,28.50
2018-08-11T15:37:05.464Z,28.60
2018-08-11T15:39:35.123Z,29.90
2018-08-11T15:42:03.906Z,28.90
2018-08-11T15:44:32.712Z,29.40
2018-08-11T15:47:01.812Z,28.40
2018-08-11T15:49:30.713Z,27.40
2018-08-11T15:52:00.364Z,28.60
2018-08-11T15:54:30.361Z,31.30
2018-08-11T15:57:00.099Z,29.80
2018-08-11T15:59:28.679Z,28.50
2018-08-11T16:01:58.400Z,29.10
2018-08-11T16:04:27.167Z,28.40
2018-08-11T16:06:56.051Z,29.10
2018-08-11T16:09:24.917Z,30.10
2018-08-11T16:11:53.542Z,29.80
2018-08-11T16:14:23.258Z,30.40
2018-08-11T16:16:52.462Z,31.40
2018-08-11T16:19:23.897Z,30.90
2018-08-11T16:21:53.891Z,31.10
2018-08-11T16:24:22.576Z,30.80
2018-08-11T16:26:51.320Z,30.40
2018-08-11T16:29:21.105Z,30.20
2018-08-11T16:31:49.701Z,29.80
2018-08-11T16:34:18.906Z,30.30
2018-08-11T16:36:48.969Z,30.90
2018-08-11T16:39:18.138Z,30.80
2018-08-11T16:41:47.494Z,30.20
2018-08-11T16:44:16.935Z,29.10
2018-08-11T16:46:45.538Z,29.90
2018-08-11T16:49:14.480Z,30.00
2018-08-11T16:51:46.389Z,29.10
2018-08-11T16:54:15.187Z,30.00
2018-08-11T16:56:44.078Z,30.20
2018-08-11T16:59:13.632Z,29.70
2018-08-11T17:01:42.493Z,30.50
2018-08-11T17:04:12.070Z,30.00
2018-08-11T17:06:41.345Z,30.60
2018-08-11T17:09:10.960Z,29.30
2018-08-11T17:11:40.789Z,30.00
2018-08-11T17:14:09.623Z,29.60
2018-08-11T17:16:38.239Z,30.00
2018-08-11T17:19:08.031Z,29.90
2018-08-11T17:21:38.940Z,30.00
2018-08-11T17:24:09.303Z,30.20
2018-08-11T17:26:39.984Z,30.00
2018-08-11T17:29:10.299Z,30.00
2018-08-11T17:31:43.046Z,30.10
2018-08-11T17:34:12.779Z,30.80
2018-08-11T17:36:41.765Z,30.50
2018-08-11T17:39:11.673Z,30.60
2018-08-11T17:41:44.183Z,30.90
2018-08-11T17:44:14.343Z,31.00
2018-08-11T17:46:43.094Z,31.80
2018-08-11T17:49:14.127Z,31.00
2018-08-11T17:51:44.035Z,31.90
2018-08-11T17:54:14.188Z,31.10
2018-08-11T17:56:43.227Z,31.30
2018-08-11T17:59:12.023Z,32.90
2018-08-11T18:01:42.072Z,31.50
2018-08-11T18:04:11.515Z,31.60
2018-08-11T18:06:40.949Z,31.60
2018-08-11T18:09:11.682Z,30.00
2018-08-11T18:11:41.399Z,30.50
2018-08-11T18:14:11.249Z,30.20
2018-08-11T18:16:41.557Z,29.60
2018-08-11T18:19:10.340Z,30.00
2018-08-11T18:21:39.784Z,29.80
2018-08-11T18:24:10.660Z,30.30
2018-08-11T18:26:41.011Z,29.90
2018-08-11T18:29:11.847Z,30.80
2018-08-11T18:34:16.283Z,31.30
2018-08-11T18:36:45.783Z,32.10
2018-08-11T18:39:14.842Z,32.00
2018-08-11T18:41:45.007Z,32.40
2018-08-11T18:44:15.178Z,32.30
2018-08-11T18:46:46.565Z,32.90
2018-08-11T18:49:15.322Z,33.00
2018-08-11T18:51:45.264Z,33.80
2018-08-11T18:54:14.502Z,34.90
2018-08-11T18:56:43.902Z,36.00
2018-08-11T18:59:12.676Z,35.20
2018-08-11T19:01:41.471Z,36.00
2018-08-11T19:04:10.932Z,36.70
2018-08-11T19:06:43.753Z,36.90
2018-08-11T19:09:14.191Z,38.20
2018-08-11T19:11:45.230Z,38.70
2018-08-11T19:14:16.035Z,39.30
2018-08-11T19:16:46.716Z,38.80
2018-08-11T19:19:17.204Z,39.40
2018-08-11T19:21:47.324Z,39.60
2018-08-11T19:24:16.414Z,40.90
2018-08-11T19:26:46.954Z,41.80
2018-08-11T19:29:18.008Z,43.10
2018-08-11T19:31:47.274Z,44.30
2018-08-11T19:34:16.332Z,44.10
2018-08-11T19:36:44.998Z,44.40
2018-08-11T19:39:13.805Z,45.30
2018-08-11T19:41:42.672Z,45.50
2018-08-11T19:44:11.668Z,44.90
2018-08-11T19:46:41.416Z,45.20
2018-08-11T19:49:12.315Z,45.80
2018-08-11T19:51:43.009Z,45.80
2018-08-11T19:54:12.810Z,47.20
2018-08-11T19:56:43.611Z,47.20
2018-08-11T19:59:13.943Z,46.40
2018-08-11T20:01:43.387Z,47.80
2018-08-11T20:04:14.790Z,48.40
2018-08-11T20:06:45.407Z,48.60
2018-08-11T20:09:16.009Z,49.50
2018-08-11T20:11:52.732Z,50.30
2018-08-11T20:14:22.114Z,50.10
2018-08-11T20:16:51.867Z,50.80
2018-08-11T20:19:22.089Z,50.90
2018-08-11T20:24:25.472Z,50.40
2018-08-11T20:26:55.110Z,51.60
2018-08-11T20:29:24.078Z,51.90
2018-08-11T20:31:54.499Z,53.50
2018-08-11T20:34:23.552Z,54.30
2018-08-11T20:36:53.304Z,52.90
2018-08-11T20:39:22.920Z,53.10
2018-08-11T20:41:52.171Z,53.00
2018-08-11T20:44:21.820Z,53.50
2018-08-11T20:46:52.243Z,52.80
2018-08-11T20:49:21.195Z,53.20
2018-08-11T20:51:50.497Z,51.90
2018-08-11T20:54:21.066Z,52.60
2018-08-11T20:56:51.090Z,53.20
2018-08-11T20:59:20.903Z,53.80
2018-08-11T21:01:50.606Z,54.10
2018-08-11T21:04:19.664Z,55.30
2018-08-11T21:06:48.860Z,53.80
2018-08-11T21:09:17.871Z,54.70
2018-08-11T21:11:46.845Z,54.80
2018-08-11T21:14:16.987Z,54.50
2018-08-11T21:16:45.909Z,54.90
2018-08-11T21:19:14.913Z,55.90
2018-08-11T21:21:46.051Z,55.40
2018-08-11T21:24:15.205Z,55.00
2018-08-11T21:26:44.775Z,55.70
2018-08-11T21:29:13.750Z,55.50
2018-08-11T21:31:42.708Z,55.90
2018-08-11T21:34:12.167Z,55.80
2018-08-11T21:36:42.262Z,55.80
2018-08-11T21:39:15.594Z,56.20
2018-08-11T21:41:45.852Z,56.60
2018-08-11T21:44:14.910Z,56.60
2018-08-11T21:46:43.990Z,57.50
2018-08-11T21:49:13.463Z,57.20
2018-08-11T21:51:49.427Z,57.70
2018-08-11T21:54:18.569Z,58.30
2018-08-11T21:56:47.660Z,57.80
2018-08-11T21:59:17.736Z,58.00
2018-08-11T22:01:48.193Z,57.80
2018-08-11T22:04:18.346Z,58.80
2018-08-11T22:06:47.796Z,59.00
2018-08-11T22:09:16.800Z,59.20
2018-08-11T22:11:45.525Z,59.40
2018-08-11T22:14:14.557Z,59.20
2018-08-11T22:16:43.596Z,59.50
2018-08-11T22:19:12.780Z,59.10
2018-08-11T22:21:41.723Z,59.40
2018-08-11T22:24:10.687Z,59.70
2018-08-11T22:26:39.635Z,59.20
2018-08-11T22:29:09.212Z,59.00
2018-08-11T22:31:39.851Z,60.00
2018-08-11T22:34:09.171Z,59.30
2018-08-11T22:36:39.861Z,59.80
2018-08-11T22:39:10.674Z,59.90
2018-08-11T22:41:39.955Z,60.60
2018-08-11T22:44:09.557Z,60.10
2018-08-11T22:46:39.031Z,59.80
2018-08-11T22:49:09.099Z,59.70
2018-08-11T22:51:38.803Z,60.40
2018-08-11T22:54:13.387Z,60.40
2018-08-11T22:56:42.425Z,60.00
2018-08-11T22:59:13.463Z,60.40
2018-08-11T23:01:42.420Z,60.60
2018-08-11T23:04:11.225Z,61.10
2018-08-11T23:06:40.939Z,60.60
2018-08-11T23:09:10.095Z,60.50
2018-08-11T23:11:40.801Z,60.70
2018-08-11T23:14:09.699Z,61.20
2018-08-11T23:16:40.393Z,61.90
2018-08-11T23:19:12.058Z,61.90
2018-08-11T23:21:41.754Z,62.20
2018-08-11T23:24:14.779Z,62.20
2018-08-11T23:26:44.585Z,62.60
2018-08-11T23:29:14.949Z,62.70
2018-08-11T23:31:44.847Z,62.90
2018-08-11T23:34:16.552Z,62.00
2018-08-11T23:36:46.476Z,62.00
2018-08-11T23:39:15.645Z,62.20
2018-08-11T23:41:45.519Z,62.20
2018-08-11T23:44:15.337Z,63.00
2018-08-11T23:46:45.271Z,63.80
2018-08-11T23:49:15.194Z,63.00
2018-08-11T23:51:44.807Z,62.40
2018-08-11T23:54:15.245Z,62.00
2018-08-11T23:56:44.712Z,62.80
2018-08-11T23:59:16.124Z,63.20
